Weather at Eleftherios Venizelos International Airport

Public forecast

Using degrees Celsius for public forecast. Weather courtesy of forecast.io.

Current aviation weather report (METAR) for Eleftherios Venizelos International Airport

Retrieved 2020/10/23 21:20 UTC (18 minutes ago):

LGAV 232120Z 28004KT CAVOK 13/12 Q1019 NOSIG

Aviation forecast (TAF) for Eleftherios Venizelos International Airport

Retrieved 2020/10/23 18:12 UTC (3 hours ago):

TAF TAF LGAV 231700Z 2318/2418 VRB05KT 9999 FEW025